Time;durP1;ratioP1;P1;durP2;ratioP2;P2;SDS_P1;SDS_P2;PMS_P1;PMS_P2;Temp;Humidity;BMP_temperature;BMP_pressure;BME280_temperature;BME280_humidity;BME280_pressure;Samples;Min_cycle;Max_cycle;Signal;HPM_P1;HPM_P2
2022/04/21 00:00:48;;;;;;;4.23;4.13;;;;;;;;;;5053905;28;20906;-70
2022/04/21 00:03:14;;;;;;;3.70;3.03;;;;;;;;;;5055104;28;20415;-69
2022/04/21 00:05:41;;;;;;;3.67;3.57;;;;;;;;;;5055109;28;20406;-69
2022/04/21 00:08:10;;;;;;;4.27;3.50;;;;;;;;;;5054927;28;20423;-69
2022/04/21 00:10:36;;;;;;;4.37;4.00;;;;;;;;;;5054851;28;20423;-70
2022/04/21 00:13:02;;;;;;;6.77;3.90;;;;;;;;;;5054843;28;20451;-69
2022/04/21 00:15:28;;;;;;;3.87;3.67;;;;;;;;;;5054975;28;20446;-70
2022/04/21 00:17:54;;;;;;;6.60;3.80;;;;;;;;;;5054882;28;20581;-69
2022/04/21 00:20:20;;;;;;;4.03;3.83;;;;;;;;;;5053706;28;20515;-69
2022/04/21 00:25:31;;;;;;;3.47;3.37;;;;;;;;;;5055013;28;20394;-71
2022/04/21 00:27:57;;;;;;;3.93;3.70;;;;;;;;;;5055055;28;20411;-70
2022/04/21 00:30:23;;;;;;;4.13;3.93;;;;;;;;;;5055185;28;20413;-70
2022/04/21 00:32:49;;;;;;;4.07;3.77;;;;;;;;;;5054611;28;20424;-70
2022/04/21 00:35:17;;;;;;;3.40;3.20;;;;;;;;;;5054775;28;20422;-70
2022/04/21 00:37:44;;;;;;;3.67;3.57;;;;;;;;;;5054478;28;20961;-70
2022/04/21 00:40:11;;;;;;;4.60;4.20;;;;;;;;;;5054410;28;20502;-67
2022/04/21 00:42:37;;;;;;;3.43;3.43;;;;;;;;;;5054280;28;20426;-70
2022/04/21 00:45:03;;;;;;;3.57;3.43;;;;;;;;;;5054593;28;20411;-70
2022/04/21 00:47:30;;;;;;;4.43;4.00;;;;;;;;;;5053009;28;20437;-69
2022/04/21 00:49:56;;;;;;;3.80;3.60;;;;;;;;;;5054443;28;20400;-70
2022/04/21 00:52:22;;;;;;;3.80;3.57;;;;;;;;;;5054320;28;20430;-69
2022/04/21 00:54:48;;;;;;;3.73;3.63;;;;;;;;;;5054567;28;20434;-70
2022/04/21 00:57:14;;;;;;;4.00;3.70;;;;;;;;;;5054454;28;20501;-70
2022/04/21 00:59:40;;;;;;;3.90;3.70;;;;;;;;;;5054138;28;20407;-70
2022/04/21 01:04:52;;;;;;;3.53;3.43;;;;;;;;;;5053972;28;20391;-70
2022/04/21 01:07:20;;;;;;;5.07;4.00;;;;;;;;;;5053676;28;20419;-70
2022/04/21 01:09:46;;;;;;;3.20;3.10;;;;;;;;;;5053877;28;20396;-69
2022/04/21 01:12:13;;;;;;;3.50;3.37;;;;;;;;;;5054012;28;20443;-69
2022/04/21 01:14:39;;;;;;;4.80;4.40;;;;;;;;;;5053886;28;20391;-70
2022/04/21 01:17:09;;;;;;;4.47;4.07;;;;;;;;;;5053421;28;20433;-70
2022/04/21 01:19:35;;;;;;;3.93;3.73;;;;;;;;;;5053683;28;20443;-70
2022/04/21 01:22:01;;;;;;;4.90;3.50;;;;;;;;;;5053819;28;20377;-70
2022/04/21 01:24:27;;;;;;;6.43;3.80;;;;;;;;;;5053674;28;20910;-70
2022/04/21 01:26:55;;;;;;;4.27;4.17;;;;;;;;;;5053476;28;20490;-69
2022/04/21 01:29:24;;;;;;;9.23;3.90;;;;;;;;;;5053551;28;20399;-70
2022/04/21 01:31:53;;;;;;;3.50;3.40;;;;;;;;;;5053563;28;20382;-70
2022/04/21 01:34:19;;;;;;;4.30;4.10;;;;;;;;;;5053509;28;20389;-69
2022/04/21 01:42:14;;;;;;;3.90;3.77;;;;;;;;;;5053476;28;20523;-70
2022/04/21 01:44:41;;;;;;;4.13;3.93;;;;;;;;;;5053116;28;20377;-70
2022/04/21 01:47:10;;;;;;;4.30;3.93;;;;;;;;;;5053047;28;20407;-69
2022/04/21 01:49:36;;;;;;;4.17;3.87;;;;;;;;;;5052976;28;20413;-70
2022/04/21 01:52:02;;;;;;;7.63;4.37;;;;;;;;;;5052945;28;20948;-70
2022/04/21 01:54:28;;;;;;;4.43;4.13;;;;;;;;;;5052836;28;20403;-70
2022/04/21 01:56:54;;;;;;;3.70;3.60;;;;;;;;;;5052913;28;20491;-70
2022/04/21 01:59:20;;;;;;;4.40;4.10;;;;;;;;;;5052931;28;20382;-70
2022/04/21 02:01:48;;;;;;;7.40;4.40;;;;;;;;;;5052935;28;20403;-69
2022/04/21 02:04:14;;;;;;;7.10;6.40;;;;;;;;;;5052947;28;20774;-69
2022/04/21 02:06:40;;;;;;;4.50;4.30;;;;;;;;;;5052968;28;20422;-69
2022/04/21 02:09:06;;;;;;;4.80;4.50;;;;;;;;;;5052165;28;20927;-69
2022/04/21 02:11:32;;;;;;;4.80;4.47;;;;;;;;;;5052546;28;20399;-70
2022/04/21 02:13:58;;;;;;;4.90;4.70;;;;;;;;;;5052400;28;20828;-70
2022/04/21 02:16:24;;;;;;;4.17;4.07;;;;;;;;;;5052690;28;20395;-70
2022/04/21 02:18:50;;;;;;;4.80;4.50;;;;;;;;;;5056621;28;20869;-69
2022/04/21 02:21:16;;;;;;;3.93;3.83;;;;;;;;;;5056654;28;20397;-68
2022/04/21 02:23:42;;;;;;;4.53;4.37;;;;;;;;;;5055424;28;20397;-69
2022/04/21 02:26:09;;;;;;;4.67;4.00;;;;;;;;;;5056701;28;20896;-69
2022/04/21 02:28:35;;;;;;;4.40;4.13;;;;;;;;;;5056853;28;20727;-69
2022/04/21 02:31:01;;;;;;;4.20;4.10;;;;;;;;;;5056710;28;20835;-71
2022/04/21 02:33:27;;;;;;;4.67;4.47;;;;;;;;;;5056663;28;20398;-69
2022/04/21 02:35:53;;;;;;;4.40;4.03;;;;;;;;;;5056383;28;20492;-70
2022/04/21 02:38:19;;;;;;;4.17;4.07;;;;;;;;;;5056371;28;20478;-69
2022/04/21 02:40:47;;;;;;;4.27;3.97;;;;;;;;;;5056314;28;20468;-69
2022/04/21 02:43:13;;;;;;;4.70;4.40;;;;;;;;;;5056443;28;20415;-69
2022/04/21 02:45:39;;;;;;;4.10;3.90;;;;;;;;;;5056579;28;20399;-69
2022/04/21 02:48:05;;;;;;;4.53;4.43;;;;;;;;;;5056198;28;20466;-70
2022/04/21 02:50:32;;;;;;;4.90;4.43;;;;;;;;;;5056184;28;20407;-69
2022/04/21 02:52:58;;;;;;;4.83;4.53;;;;;;;;;;5056313;28;20474;-70
2022/04/21 02:58:09;;;;;;;4.70;4.47;;;;;;;;;;5056226;28;20484;-69
2022/04/21 03:00:35;;;;;;;4.80;4.60;;;;;;;;;;5056332;28;20396;-70
2022/04/21 03:03:01;;;;;;;4.50;4.30;;;;;;;;;;5056021;28;20833;-69
2022/04/21 03:05:27;;;;;;;5.10;4.80;;;;;;;;;;5055927;28;20536;-70
2022/04/21 03:07:54;;;;;;;4.33;4.23;;;;;;;;;;5056058;28;20869;-69
2022/04/21 03:10:20;;;;;;;4.67;4.47;;;;;;;;;;5056058;28;20402;-69
2022/04/21 03:12:46;;;;;;;4.50;4.30;;;;;;;;;;5055892;28;20517;-69
2022/04/21 03:15:12;;;;;;;8.93;5.07;;;;;;;;;;5056010;28;20395;-69
2022/04/21 03:17:39;;;;;;;4.93;4.83;;;;;;;;;;5055694;28;20478;-69
2022/04/21 03:20:05;;;;;;;5.20;4.80;;;;;;;;;;5055695;28;20414;-69
2022/04/21 03:25:17;;;;;;;5.37;5.07;;;;;;;;;;5055736;28;20394;-69
2022/04/21 03:27:46;;;;;;;4.80;4.60;;;;;;;;;;5055833;28;20409;-69
2022/04/21 03:30:13;;;;;;;4.60;4.40;;;;;;;;;;5054692;28;20366;-69
2022/04/21 03:32:39;;;;;;;5.07;4.87;;;;;;;;;;5055517;28;20889;-69
2022/04/21 03:35:06;;;;;;;5.00;4.80;;;;;;;;;;5055439;28;20785;-69
2022/04/21 03:37:33;;;;;;;5.57;5.13;;;;;;;;;;5055552;28;20913;-69
2022/04/21 03:39:59;;;;;;;4.80;4.60;;;;;;;;;;5055174;28;20780;-69
2022/04/21 03:42:31;;;;;;;5.67;5.03;;;;;;;;;;5055670;28;20417;-69
2022/04/21 03:44:57;;;;;;;5.90;5.60;;;;;;;;;;5055394;28;20374;-69
2022/04/21 03:47:24;;;;;;;7.00;4.57;;;;;;;;;;5055301;28;20568;-70
2022/04/21 03:49:50;;;;;;;4.53;4.33;;;;;;;;;;5055198;28;20385;-70
2022/04/21 03:52:19;;;;;;;6.33;5.73;;;;;;;;;;5055164;28;20477;-70
2022/04/21 03:54:45;;;;;;;5.30;5.10;;;;;;;;;;5055150;28;20812;-70
2022/04/21 03:57:11;;;;;;;40.50;28.23;;;;;;;;;;5054837;28;20476;-70
2022/04/21 03:59:37;;;;;;;21.73;8.10;;;;;;;;;;5055143;28;20859;-70
2022/04/21 04:02:04;;;;;;;5.57;5.03;;;;;;;;;;5054937;28;20407;-70
2022/04/21 04:04:30;;;;;;;14.93;6.10;;;;;;;;;;5054905;28;20406;-70
2022/04/21 04:12:30;;;;;;;5.63;5.23;;;;;;;;;;5054838;28;20457;-69
2022/04/21 04:14:56;;;;;;;7.20;5.90;;;;;;;;;;5054742;28;20523;-69
2022/04/21 04:17:22;;;;;;;7.43;6.83;;;;;;;;;;5054471;28;20458;-69
2022/04/21 04:19:48;;;;;;;8.63;6.40;;;;;;;;;;5054584;28;20410;-69
2022/04/21 04:22:15;;;;;;;6.63;6.13;;;;;;;;;;5054572;28;20392;-69
2022/04/21 04:24:41;;;;;;;6.87;6.20;;;;;;;;;;5054448;28;20380;-69
2022/04/21 04:27:07;;;;;;;6.87;6.37;;;;;;;;;;5054696;28;20456;-68
2022/04/21 04:29:33;;;;;;;8.50;6.43;;;;;;;;;;5054399;28;20408;-68
2022/04/21 04:32:01;;;;;;;7.13;6.50;;;;;;;;;;5054622;28;20230;-69
2022/04/21 04:34:27;;;;;;;7.10;6.47;;;;;;;;;;5054602;28;20399;-69
2022/04/21 04:36:53;;;;;;;6.70;6.20;;;;;;;;;;5054292;28;20433;-69
2022/04/21 04:39:22;;;;;;;6.23;5.87;;;;;;;;;;5053837;28;20441;-70
2022/04/21 04:44:32;;;;;;;8.53;6.70;;;;;;;;;;5054125;28;20413;-69
2022/04/21 04:46:58;;;;;;;6.40;5.97;;;;;;;;;;5053936;28;20465;-69
2022/04/21 04:49:24;;;;;;;6.70;6.07;;;;;;;;;;5054215;28;20407;-68
2022/04/21 04:51:51;;;;;;;6.90;6.27;;;;;;;;;;5052497;28;20411;-69
2022/04/21 04:54:17;;;;;;;6.30;5.97;;;;;;;;;;5054220;28;20419;-69
2022/04/21 04:56:44;;;;;;;7.40;6.90;;;;;;;;;;5054069;28;20410;-69
2022/04/21 04:59:10;;;;;;;6.67;6.10;;;;;;;;;;5053655;28;20173;-68
2022/04/21 05:01:43;;;;;;;7.43;6.80;;;;;;;;;;5053789;28;20540;-69
2022/04/21 05:04:10;;;;;;;7.60;7.00;;;;;;;;;;5053996;28;20173;-68
2022/04/21 05:06:37;;;;;;;11.63;7.65;;;;;;;;;;5053730;28;20407;-69
2022/04/21 05:09:04;;;;;;;7.45;6.80;;;;;;;;;;5053567;28;20187;-69
2022/04/21 05:11:31;;;;;;;7.80;7.25;;;;;;;;;;5053217;28;20175;-68
2022/04/21 05:13:57;;;;;;;8.53;7.93;;;;;;;;;;5053746;28;20587;-69
2022/04/21 05:16:23;;;;;;;7.90;7.20;;;;;;;;;;5053493;28;20399;-69
2022/04/21 05:18:49;;;;;;;7.73;7.33;;;;;;;;;;5053515;28;20480;-69
2022/04/21 05:21:16;;;;;;;7.97;7.37;;;;;;;;;;5053670;28;20871;-69
2022/04/21 05:23:45;;;;;;;8.80;7.90;;;;;;;;;;5053572;28;21073;-69
2022/04/21 05:26:11;;;;;;;10.13;8.00;;;;;;;;;;5053346;28;20890;-69
2022/04/21 05:28:37;;;;;;;8.83;7.73;;;;;;;;;;5053124;28;20422;-70
2022/04/21 05:31:03;;;;;;;12.10;8.07;;;;;;;;;;5053415;28;20426;-69
2022/04/21 05:33:30;;;;;;;8.83;8.03;;;;;;;;;;5053085;28;20403;-69
2022/04/21 05:35:58;;;;;;;12.80;7.90;;;;;;;;;;5053271;28;20414;-69
2022/04/21 05:38:24;;;;;;;8.60;7.90;;;;;;;;;;5052932;28;20473;-69
2022/04/21 05:40:51;;;;;;;10.07;8.90;;;;;;;;;;5053042;28;20474;-70
2022/04/21 05:43:18;;;;;;;12.50;8.07;;;;;;;;;;5053202;28;20415;-69
2022/04/21 05:45:45;;;;;;;8.90;8.10;;;;;;;;;;5053358;28;20431;-69
2022/04/21 05:48:11;;;;;;;9.45;8.70;;;;;;;;;;5053380;28;20472;-67
2022/04/21 05:50:37;;;;;;;12.33;8.47;;;;;;;;;;5053064;28;20164;-68
2022/04/21 05:53:04;;;;;;;9.47;8.47;;;;;;;;;;5052256;28;20430;-68
2022/04/21 05:55:30;;;;;;;9.83;8.90;;;;;;;;;;5052942;28;20986;-69
2022/04/21 05:57:56;;;;;;;8.50;7.80;;;;;;;;;;5052743;28;20466;-68
2022/04/21 06:00:22;;;;;;;10.30;9.23;;;;;;;;;;5053057;28;20426;-69
2022/04/21 06:02:48;;;;;;;9.80;8.80;;;;;;;;;;5053136;28;20457;-67
2022/04/21 06:05:14;;;;;;;9.00;8.20;;;;;;;;;;5052892;28;20893;-70
2022/04/21 06:07:40;;;;;;;9.90;8.90;;;;;;;;;;5053115;28;20427;-68
2022/04/21 06:10:07;;;;;;;8.30;7.70;;;;;;;;;;5052830;28;20403;-69
2022/04/21 06:12:34;;;;;;;8.20;7.47;;;;;;;;;;5053020;28;20518;-71
2022/04/21 06:15:00;;;;;;;12.87;8.80;;;;;;;;;;5053051;28;20407;-68
2022/04/21 06:17:26;;;;;;;12.20;8.20;;;;;;;;;;5052773;28;21015;-68
2022/04/21 06:19:52;;;;;;;14.47;8.40;;;;;;;;;;5052911;28;20369;-68
2022/04/21 06:22:18;;;;;;;9.03;8.00;;;;;;;;;;5052467;28;20865;-68
2022/04/21 06:24:44;;;;;;;8.23;7.53;;;;;;;;;;5052674;28;20387;-68
2022/04/21 06:27:10;;;;;;;8.77;7.80;;;;;;;;;;5052557;28;20399;-69
2022/04/21 06:29:36;;;;;;;8.37;7.60;;;;;;;;;;5052517;28;20896;-68
2022/04/21 06:32:02;;;;;;;10.07;9.17;;;;;;;;;;5052629;28;20406;-68
2022/04/21 06:34:28;;;;;;;8.97;8.30;;;;;;;;;;5052714;28;20828;-69
2022/04/21 06:36:54;;;;;;;8.80;7.60;;;;;;;;;;5052646;28;20541;-68
2022/04/21 06:39:20;;;;;;;8.37;7.77;;;;;;;;;;5052584;28;20397;-69
2022/04/21 06:41:46;;;;;;;8.07;7.47;;;;;;;;;;5051340;28;20453;-69
2022/04/21 06:49:41;;;;;;;7.40;6.90;;;;;;;;;;5052611;28;20397;-68
2022/04/21 06:52:07;;;;;;;9.37;8.47;;;;;;;;;;5052582;28;20814;-69
2022/04/21 06:54:33;;;;;;;8.27;7.57;;;;;;;;;;5052614;28;20473;-69
2022/04/21 06:56:59;;;;;;;9.73;8.60;;;;;;;;;;5052670;28;20435;-69
2022/04/21 06:59:25;;;;;;;8.10;7.60;;;;;;;;;;5052759;28;20786;-68
2022/04/21 07:01:51;;;;;;;8.07;7.57;;;;;;;;;;5052854;28;20413;-68
2022/04/21 07:04:17;;;;;;;8.10;7.40;;;;;;;;;;5055577;28;20867;-69
2022/04/21 07:06:43;;;;;;;10.33;7.23;;;;;;;;;;5056546;28;20395;-67
2022/04/21 07:09:10;;;;;;;7.73;7.20;;;;;;;;;;5056423;28;20881;-68
2022/04/21 07:11:37;;;;;;;12.77;7.90;;;;;;;;;;5056474;28;20395;-67
2022/04/21 07:14:03;;;;;;;7.63;6.93;;;;;;;;;;5055142;28;20397;-68
2022/04/21 07:16:29;;;;;;;8.57;7.67;;;;;;;;;;5056323;28;20896;-68
2022/04/21 07:18:55;;;;;;;8.40;7.77;;;;;;;;;;5054841;28;20536;-68
2022/04/21 07:21:21;;;;;;;9.60;8.20;;;;;;;;;;5056081;28;20380;-68
2022/04/21 07:23:47;;;;;;;9.97;8.20;;;;;;;;;;5056081;28;20869;-67
2022/04/21 07:26:13;;;;;;;8.43;7.50;;;;;;;;;;5055945;28;20406;-67
2022/04/21 07:28:41;;;;;;;9.27;8.50;;;;;;;;;;5054562;28;20455;-68
2022/04/21 07:31:07;;;;;;;8.70;7.70;;;;;;;;;;5056029;28;20780;-67
2022/04/21 07:33:33;;;;;;;7.90;7.30;;;;;;;;;;5055730;28;20402;-66
2022/04/21 07:35:59;;;;;;;46.03;8.60;;;;;;;;;;5055692;28;20393;-67
2022/04/21 07:38:25;;;;;;;10.40;7.67;;;;;;;;;;5055496;28;20478;-67
2022/04/21 07:40:53;;;;;;;10.70;7.57;;;;;;;;;;5055438;28;20540;-67
2022/04/21 07:43:19;;;;;;;8.87;7.93;;;;;;;;;;5055815;28;20407;-67
2022/04/21 07:45:46;;;;;;;9.17;8.20;;;;;;;;;;5055474;28;20906;-68
2022/04/21 07:48:12;;;;;;;8.53;7.83;;;;;;;;;;5055615;28;20415;-68
2022/04/21 07:50:38;;;;;;;8.63;8.03;;;;;;;;;;5054075;28;20423;-68
2022/04/21 07:53:13;;;;;;;8.03;7.33;;;;;;;;;;5055519;28;20450;-68
2022/04/21 07:55:40;;;;;;;7.23;6.57;;;;;;;;;;5055341;28;20936;-67
2022/04/21 07:58:06;;;;;;;7.70;7.00;;;;;;;;;;5055437;28;20478;-67
2022/04/21 08:00:36;;;;;;;12.33;7.97;;;;;;;;;;5055437;28;20407;-68
2022/04/21 08:03:02;;;;;;;8.90;8.10;;;;;;;;;;5054167;28;20392;-68
2022/04/21 08:05:28;;;;;;;11.33;7.77;;;;;;;;;;5055342;28;20410;-68
2022/04/21 08:07:54;;;;;;;9.87;8.83;;;;;;;;;;5054084;28;20430;-67
2022/04/21 08:10:20;;;;;;;7.97;7.37;;;;;;;;;;5055699;28;20411;-66
2022/04/21 08:12:51;;;;;;;8.40;7.60;;;;;;;;;;5055124;28;20791;-66
2022/04/21 08:15:33;;;;;;;9.23;8.43;;;;;;;;;;5054284;28;20444;-66
2022/04/21 08:18:01;;;;;;;10.60;8.00;;;;;;;;;;5055207;28;20470;-67
2022/04/21 08:20:28;;;;;;;7.50;7.10;;;;;;;;;;5055120;28;20391;-69
2022/04/21 08:22:54;;;;;;;7.80;7.20;;;;;;;;;;5055330;28;20422;-69
2022/04/21 08:33:36;;;;;;;8.53;6.77;;;;;;;;;;5054703;28;20459;-72
2022/04/21 08:36:02;;;;;;;12.00;7.07;;;;;;;;;;5055035;28;20444;-70
2022/04/21 08:38:29;;;;;;;8.80;7.00;;;;;;;;;;5054625;28;20902;-71
2022/04/21 08:40:59;;;;;;;9.23;7.93;;;;;;;;;;5054764;28;20550;-68
2022/04/21 08:43:27;;;;;;;13.60;7.50;;;;;;;;;;5053350;28;20426;-68
2022/04/21 08:45:53;;;;;;;8.63;7.50;;;;;;;;;;5054589;28;20415;-68
2022/04/21 08:48:20;;;;;;;8.30;7.70;;;;;;;;;;5053272;28;20421;-67
2022/04/21 08:50:46;;;;;;;9.37;7.13;;;;;;;;;;5054494;28;20423;-65
2022/04/21 08:53:17;;;;;;;8.77;7.23;;;;;;;;;;5053292;28;20415;-67
2022/04/21 08:55:44;;;;;;;7.60;7.00;;;;;;;;;;5053366;28;20476;-67
2022/04/21 08:58:11;;;;;;;8.03;7.50;;;;;;;;;;5052935;28;20498;-67
2022/04/21 09:00:37;;;;;;;7.97;6.90;;;;;;;;;;5052942;28;20434;-65
2022/04/21 09:03:06;;;;;;;7.50;6.90;;;;;;;;;;5052794;28;20516;-67
2022/04/21 09:05:32;;;;;;;9.47;7.57;;;;;;;;;;5052814;28;20407;-67
2022/04/21 09:07:59;;;;;;;7.43;6.83;;;;;;;;;;5052692;28;20434;-65
2022/04/21 09:10:34;;;;;;;8.23;7.37;;;;;;;;;;5053012;28;20429;-69
2022/04/21 09:13:01;;;;;;;8.40;7.70;;;;;;;;;;5052654;28;21106;-66
2022/04/21 09:15:29;;;;;;;7.83;7.33;;;;;;;;;;5050088;28;20399;-66
2022/04/21 09:17:57;;;;;;;8.40;7.60;;;;;;;;;;5052810;28;20474;-68
2022/04/21 09:20:24;;;;;;;7.43;6.83;;;;;;;;;;5051207;28;20434;-66
2022/04/21 09:22:52;;;;;;;6.50;6.00;;;;;;;;;;5052510;28;20434;-63
2022/04/21 09:25:19;;;;;;;8.60;7.50;;;;;;;;;;5052625;28;20414;-69
2022/04/21 09:27:45;;;;;;;8.23;7.10;;;;;;;;;;5052385;28;20853;-69
2022/04/21 09:30:16;;;;;;;7.00;6.50;;;;;;;;;;5052716;28;20420;-71
2022/04/21 09:32:42;;;;;;;7.60;7.10;;;;;;;;;;5052536;28;20508;-71
2022/04/21 09:35:09;;;;;;;7.73;6.70;;;;;;;;;;5052431;28;20918;-70
2022/04/21 09:37:46;;;;;;;7.57;6.97;;;;;;;;;;5053546;28;20491;-71
2022/04/21 09:40:12;;;;;;;10.93;7.23;;;;;;;;;;5053855;28;20415;-69
2022/04/21 09:42:38;;;;;;;11.70;7.47;;;;;;;;;;5052338;28;20634;-65
2022/04/21 09:47:51;;;;;;;7.77;6.77;;;;;;;;;;5053687;28;20454;-70
2022/04/21 09:50:17;;;;;;;8.10;7.40;;;;;;;;;;5053336;28;20803;-72
2022/04/21 09:52:50;;;;;;;11.90;7.40;;;;;;;;;;5053434;28;20465;-71
2022/04/21 09:55:20;;;;;;;9.53;7.20;;;;;;;;;;5052102;28;20929;-69
2022/04/21 09:57:46;;;;;;;7.83;7.10;;;;;;;;;;5053227;28;20456;-72
2022/04/21 10:00:12;;;;;;;8.07;7.30;;;;;;;;;;5053566;28;20777;-71
2022/04/21 10:02:38;;;;;;;7.10;6.53;;;;;;;;;;5053304;28;20405;-72
2022/04/21 10:05:05;;;;;;;12.13;8.00;;;;;;;;;;5053366;28;20408;-69
2022/04/21 10:07:32;;;;;;;7.93;7.33;;;;;;;;;;5053309;28;20432;-67
2022/04/21 10:09:59;;;;;;;9.17;8.30;;;;;;;;;;5053364;28;20409;-67
2022/04/21 10:12:25;;;;;;;8.37;7.77;;;;;;;;;;5053714;28;20745;-71
2022/04/21 10:14:52;;;;;;;9.27;8.20;;;;;;;;;;5053383;28;20412;-67
2022/04/21 10:17:18;;;;;;;8.07;7.50;;;;;;;;;;5053223;28;20469;-69
2022/04/21 10:19:48;;;;;;;8.20;7.60;;;;;;;;;;5053319;28;20432;-70
2022/04/21 10:22:15;;;;;;;9.47;8.30;;;;;;;;;;5053269;28;20839;-72
2022/04/21 10:24:41;;;;;;;8.40;7.60;;;;;;;;;;5053163;28;20424;-72
2022/04/21 10:27:27;;;;;;;9.27;8.57;;;;;;;;;;5053151;28;20408;-73
2022/04/21 10:29:53;;;;;;;9.03;8.23;;;;;;;;;;5053057;28;20418;-71
2022/04/21 10:32:19;;;;;;;8.20;7.37;;;;;;;;;;5053024;28;20413;-70
2022/04/21 10:34:46;;;;;;;16.67;7.50;;;;;;;;;;5053117;28;20425;-75
2022/04/21 10:37:22;;;;;;;10.03;8.20;;;;;;;;;;5052989;28;20460;-69
2022/04/21 10:40:04;;;;;;;7.90;7.10;;;;;;;;;;5057019;28;20418;-74
2022/04/21 10:42:31;;;;;;;8.77;7.37;;;;;;;;;;5057020;28;20902;-74
2022/04/21 10:44:57;;;;;;;9.27;8.37;;;;;;;;;;5055651;28;20817;-75
2022/04/21 10:47:29;;;;;;;8.90;8.23;;;;;;;;;;5057212;28;20648;-70
2022/04/21 10:49:55;;;;;;;10.73;7.57;;;;;;;;;;5056930;28;20417;-83
2022/04/21 10:57:48;;;;;;;9.93;8.30;;;;;;;;;;5056560;28;20473;-70
2022/04/21 11:00:26;;;;;;;9.13;8.33;;;;;;;;;;5056670;28;20418;-68
2022/04/21 11:03:03;;;;;;;18.23;8.33;;;;;;;;;;5056631;28;20460;-68
2022/04/21 11:05:33;;;;;;;9.40;8.63;;;;;;;;;;5056751;28;20404;-67
2022/04/21 11:08:03;;;;;;;11.53;7.47;;;;;;;;;;5056735;28;20414;-67
2022/04/21 11:10:45;;;;;;;8.87;8.00;;;;;;;;;;5056588;28;20407;-69
2022/04/21 11:13:12;;;;;;;8.77;7.67;;;;;;;;;;5056361;28;20407;-68
2022/04/21 11:15:39;;;;;;;8.97;8.07;;;;;;;;;;5056650;28;20404;-72
2022/04/21 11:18:34;;;;;;;8.97;8.17;;;;;;;;;;5056274;28;20471;-68
2022/04/21 11:21:19;;;;;;;10.40;9.30;;;;;;;;;;5051736;28;20452;-71
2022/04/21 11:23:45;;;;;;;10.30;8.40;;;;;;;;;;5056210;28;20416;-69
2022/04/21 11:26:11;;;;;;;8.13;7.53;;;;;;;;;;5056186;28;20764;-70
2022/04/21 11:28:42;;;;;;;10.27;9.27;;;;;;;;;;5056184;28;20875;-69
2022/04/21 11:31:08;;;;;;;9.70;8.70;;;;;;;;;;5056122;28;20424;-69
2022/04/21 11:33:35;;;;;;;8.17;7.47;;;;;;;;;;5056042;28;20409;-71
2022/04/21 11:36:04;;;;;;;9.30;8.40;;;;;;;;;;5054802;28;20430;-69
2022/04/21 11:38:32;;;;;;;9.07;7.40;;;;;;;;;;5054404;28;20480;-69
2022/04/21 11:41:02;;;;;;;9.20;8.40;;;;;;;;;;5055815;28;20823;-71
2022/04/21 11:43:28;;;;;;;9.40;8.50;;;;;;;;;;5055893;28;20412;-69
2022/04/21 11:45:54;;;;;;;10.23;8.77;;;;;;;;;;5055771;28;20406;-69
2022/04/21 11:48:21;;;;;;;8.20;7.60;;;;;;;;;;5054548;28;20431;-66
2022/04/21 11:50:49;;;;;;;12.03;8.50;;;;;;;;;;5054498;28;20408;-69
2022/04/21 11:53:20;;;;;;;14.73;9.17;;;;;;;;;;5055939;28;20943;-72
2022/04/21 11:55:47;;;;;;;8.43;7.70;;;;;;;;;;5054388;28;20792;-71
2022/04/21 11:58:13;;;;;;;8.80;8.00;;;;;;;;;;5055505;28;20475;-71
2022/04/21 12:06:32;;;;;;;10.07;9.03;;;;;;;;;;5055532;28;20420;-70
2022/04/21 12:08:58;;;;;;;9.67;8.73;;;;;;;;;;5055096;28;20420;-68
2022/04/21 12:11:24;;;;;;;12.10;7.83;;;;;;;;;;5055506;28;20476;-76
2022/04/21 12:13:51;;;;;;;8.90;8.20;;;;;;;;;;5055479;28;20470;-70
2022/04/21 12:16:36;;;;;;;9.50;8.70;;;;;;;;;;5055127;28;20927;-71
2022/04/21 12:19:12;;;;;;;8.70;7.93;;;;;;;;;;5055210;28;20508;-68
2022/04/21 12:21:39;;;;;;;11.13;8.60;;;;;;;;;;5055033;28;20398;-69
2022/04/21 12:24:18;;;;;;;9.67;8.73;;;;;;;;;;5054929;28;20447;-67
2022/04/21 12:26:51;;;;;;;8.87;8.10;;;;;;;;;;5055157;28;20742;-67
2022/04/21 12:29:17;;;;;;;8.83;7.90;;;;;;;;;;5054875;28;20442;-71
2022/04/21 12:31:53;;;;;;;8.40;7.60;;;;;;;;;;5054142;28;20454;-68
2022/04/21 12:34:23;;;;;;;14.07;8.50;;;;;;;;;;5054801;28;20403;-68
2022/04/21 12:36:53;;;;;;;8.90;8.07;;;;;;;;;;5054806;28;20441;-73
2022/04/21 12:39:20;;;;;;;9.07;8.27;;;;;;;;;;5054883;28;20781;-72
2022/04/21 12:41:46;;;;;;;9.50;7.60;;;;;;;;;;5054511;28;20469;-74
2022/04/21 12:44:12;;;;;;;8.53;7.90;;;;;;;;;;5054605;28;20425;-71
2022/04/21 12:46:40;;;;;;;9.07;8.27;;;;;;;;;;5054566;28;20398;-70
2022/04/21 12:49:06;;;;;;;8.90;8.20;;;;;;;;;;5054649;28;20412;-74
2022/04/21 12:51:32;;;;;;;8.70;7.90;;;;;;;;;;5054459;28;20409;-71
2022/04/21 12:53:58;;;;;;;8.30;7.60;;;;;;;;;;5054329;28;20507;-72
2022/04/21 12:56:35;;;;;;;11.03;8.17;;;;;;;;;;5054317;28;20489;-70
2022/04/21 12:59:01;;;;;;;15.13;7.23;;;;;;;;;;5054204;28;20468;-74
2022/04/21 13:01:27;;;;;;;7.90;7.03;;;;;;;;;;5053958;28;20771;-69
2022/04/21 13:03:53;;;;;;;8.07;7.13;;;;;;;;;;5054239;28;20890;-67
2022/04/21 13:06:29;;;;;;;10.50;7.67;;;;;;;;;;5054156;28;20400;-71
2022/04/21 13:08:56;;;;;;;7.93;7.27;;;;;;;;;;5054079;28;20792;-71
2022/04/21 13:11:23;;;;;;;15.10;7.63;;;;;;;;;;5054212;28;20399;-70
2022/04/21 13:13:50;;;;;;;7.00;6.50;;;;;;;;;;5054004;28;20418;-69
2022/04/21 13:16:16;;;;;;;7.97;7.17;;;;;;;;;;5053980;28;20405;-68
2022/04/21 13:18:42;;;;;;;21.13;8.20;;;;;;;;;;5053750;28;20976;-68
2022/04/21 13:23:52;;;;;;;7.97;7.47;;;;;;;;;;5053896;28;20475;-71
2022/04/21 13:26:20;;;;;;;8.07;7.17;;;;;;;;;;5053827;28;20810;-68
2022/04/21 13:28:46;;;;;;;8.53;7.73;;;;;;;;;;5053925;28;20459;-70
2022/04/21 13:33:58;;;;;;;7.93;7.27;;;;;;;;;;5053398;28;20485;-71
2022/04/21 13:36:24;;;;;;;7.97;7.10;;;;;;;;;;5051404;28;20407;-70
2022/04/21 13:38:50;;;;;;;7.20;6.70;;;;;;;;;;5053711;28;20474;-71
2022/04/21 13:41:17;;;;;;;7.17;6.60;;;;;;;;;;5053550;28;20595;-70
2022/04/21 13:43:43;;;;;;;12.03;6.70;;;;;;;;;;5053942;28;20412;-67
2022/04/21 13:46:10;;;;;;;7.63;6.97;;;;;;;;;;5049695;28;20603;-67
2022/04/21 13:48:36;;;;;;;7.40;6.90;;;;;;;;;;5051858;28;20419;-67
2022/04/21 13:51:03;;;;;;;7.43;6.77;;;;;;;;;;5053463;28;20461;-65
2022/04/21 13:53:30;;;;;;;9.63;7.50;;;;;;;;;;5053569;28;20456;-66
2022/04/21 13:55:56;;;;;;;10.43;6.40;;;;;;;;;;5053518;28;20478;-66
2022/04/21 13:58:22;;;;;;;7.80;7.00;;;;;;;;;;5053359;28;20560;-66
2022/04/21 14:00:48;;;;;;;7.50;6.83;;;;;;;;;;5053347;28;20589;-66
2022/04/21 14:03:15;;;;;;;10.93;6.80;;;;;;;;;;5053430;28;20417;-72
2022/04/21 14:05:41;;;;;;;7.50;6.93;;;;;;;;;;5053760;28;20411;-67
2022/04/21 14:08:09;;;;;;;6.70;6.23;;;;;;;;;;5053563;28;20425;-69
2022/04/21 14:10:35;;;;;;;10.23;6.20;;;;;;;;;;5053363;28;20399;-75
2022/04/21 14:13:01;;;;;;;5.43;5.23;;;;;;;;;;5052748;28;20906;-69
2022/04/21 14:15:28;;;;;;;6.90;6.40;;;;;;;;;;5053204;28;20410;-64
2022/04/21 14:17:54;;;;;;;6.77;5.93;;;;;;;;;;5052592;28;20850;-62
2022/04/21 14:20:20;;;;;;;6.97;6.27;;;;;;;;;;5053089;28;20405;-64
2022/04/21 14:22:46;;;;;;;6.90;6.37;;;;;;;;;;5052969;28;20415;-64
2022/04/21 14:25:12;;;;;;;7.70;6.20;;;;;;;;;;5052921;28;20459;-63
2022/04/21 14:27:38;;;;;;;6.17;5.77;;;;;;;;;;5053054;28;20415;-64
2022/04/21 14:30:06;;;;;;;11.80;5.60;;;;;;;;;;5053103;28;20407;-68
2022/04/21 14:32:32;;;;;;;6.87;5.37;;;;;;;;;;5051843;28;20453;-65
2022/04/21 14:34:58;;;;;;;6.13;5.73;;;;;;;;;;5053059;28;20917;-64
2022/04/21 14:45:38;;;;;;;7.07;6.40;;;;;;;;;;5051054;28;20525;-67
2022/04/21 14:48:04;;;;;;;7.10;6.40;;;;;;;;;;5052890;28;20403;-67
2022/04/21 14:50:30;;;;;;;6.63;5.87;;;;;;;;;;5052720;28;20411;-64
2022/04/21 14:52:57;;;;;;;13.20;5.20;;;;;;;;;;5052811;28;20434;-64
2022/04/21 14:55:24;;;;;;;7.10;5.50;;;;;;;;;;5049942;28;20419;-66
2022/04/21 14:57:50;;;;;;;7.30;5.50;;;;;;;;;;5049962;28;20450;-68
2022/04/21 15:00:16;;;;;;;8.10;5.20;;;;;;;;;;5051376;28;20793;-67
2022/04/21 15:02:42;;;;;;;6.20;5.70;;;;;;;;;;5052237;28;20396;-67
2022/04/21 15:05:08;;;;;;;5.70;5.30;;;;;;;;;;5052398;28;20419;-66
2022/04/21 15:07:34;;;;;;;9.00;5.10;;;;;;;;;;5053010;28;20411;-67
2022/04/21 15:10:00;;;;;;;7.70;5.83;;;;;;;;;;5052237;28;20428;-67
2022/04/21 15:12:26;;;;;;;5.27;4.97;;;;;;;;;;5052395;28;20500;-67
2022/04/21 15:14:52;;;;;;;7.40;6.27;;;;;;;;;;5052658;28;20766;-67
2022/04/21 15:17:18;;;;;;;5.77;5.57;;;;;;;;;;5052361;28;20465;-68
2022/04/21 15:19:46;;;;;;;6.70;5.90;;;;;;;;;;5050931;28;20436;-67
2022/04/21 15:22:12;;;;;;;6.37;5.27;;;;;;;;;;5052768;28;20414;-67
2022/04/21 15:24:38;;;;;;;8.97;8.03;;;;;;;;;;5054312;28;20526;-67
2022/04/21 15:27:04;;;;;;;5.43;5.03;;;;;;;;;;5055891;28;20435;-67
2022/04/21 15:29:31;;;;;;;6.90;4.93;;;;;;;;;;5055708;28;20415;-68
2022/04/21 15:31:57;;;;;;;7.50;5.77;;;;;;;;;;5056439;28;20406;-68
2022/04/21 15:34:23;;;;;;;7.00;5.40;;;;;;;;;;5056047;28;20407;-68
2022/04/21 15:36:49;;;;;;;5.90;5.40;;;;;;;;;;5055977;28;20413;-67
2022/04/21 15:39:15;;;;;;;5.80;4.90;;;;;;;;;;5055876;28;20486;-67
2022/04/21 15:41:41;;;;;;;6.43;5.13;;;;;;;;;;5055891;28;20494;-67
2022/04/21 15:44:07;;;;;;;5.00;4.70;;;;;;;;;;5055961;28;20890;-68
2022/04/21 15:46:33;;;;;;;5.17;4.70;;;;;;;;;;5055889;28;20405;-68